Vidnoe — UBDU — position and weather

sailwx.info

Track history (hours):
 
Tides and Currents Weather Stations Pressure Air Temp Water Temp Dewpoint Dewpoint Depression Visibility Wind Speed Wind Dir Waves Ship Positions

Vidnoe

Last reported at 2017-Dec-11 17:00 UTC. Time now 2017-Dec-14 04:27 UTC.
Position N 59°53' E 030°13'.

Length 115 m; beam 17 m.

Type: Tanker. MMSI: 273516400.

Date/timePositionNaut miles runAvg speedWind from/ knotsBaromVisibWave heightAir tempDewpointWater temp
2017-Dec-11 17:00N 59°53' E 030°13'0 0.0
2017-Dec-11 16:30N 59°53' E 030°13'0 0.0
2017-Dec-11 16:00N 59°53' E 030°13'0 0.0
2017-Dec-11 15:30N 59°53' E 030°13'0 0.0
2017-Dec-11 15:00N 59°53' E 030°13'0 0.0
2017-Dec-11 14:30N 59°53' E 030°13'0 0.0
2017-Dec-11 14:00N 59°53' E 030°13'0 0.0
2017-Dec-11 13:30N 59°53' E 030°13'0 0.0
2017-Dec-11 13:00N 59°53' E 030°13'0 0.0
2017-Dec-11 12:30N 59°53' E 030°13'0 0.1
2017-Dec-11 12:00N 59°53' E 030°13'0 0.1
2017-Dec-11 11:30N 59°53' E 030°13'0 0.0
2017-Dec-11 11:00N 59°53' E 030°13'0 0.0
2017-Dec-11 10:30N 59°53' E 030°13'0 0.0
2017-Dec-11 10:00N 59°53' E 030°13'0 0.0
2017-Dec-11 09:30N 59°53' E 030°13'0 0.0
2017-Dec-11 09:00N 59°53' E 030°13'0 0.0
2017-Dec-11 08:30N 59°53' E 030°13'0 0.0
2017-Dec-11 08:00N 59°53' E 030°13'0 0.0
2017-Dec-11 07:30N 59°53' E 030°13'0 0.0
2017-Dec-11 07:00N 59°53' E 030°13'0 0.0
2017-Dec-11 06:30N 59°53' E 030°13'0 0.0
2017-Dec-11 06:00N 59°53' E 030°13'0 0.0
2017-Dec-11 05:30N 59°53' E 030°13'0 0.0
2017-Dec-11 05:00N 59°53' E 030°13'0 0.0
2017-Dec-11 04:30N 59°53' E 030°13'0 0.8
2017-Dec-11 04:00N 59°53' E 030°13'3 5.4
2017-Dec-11 03:30N 59°54' E 030°08'4 8.3
2017-Dec-11 03:00N 59°55' E 029°60'611.1
2017-Dec-11 02:30N 59°57' E 029°50'611.0
2017-Dec-11 02:00N 59°60' E 029°40'712.0
2017-Dec-11 01:25N 60°01' E 029°26'3 7.9
2017-Dec-11 01:00N 60°01' E 029°20'0 0.5
2017-Dec-11 00:30N 60°01' E 029°19'0 0.0
2017-Dec-11 00:00N 60°01' E 029°19'0 0.0
2017-Dec-10 23:30N 60°01' E 029°19'0 0.0
2017-Dec-10 23:00N 60°01' E 029°19'0 0.0
2017-Dec-10 22:27N 60°01' E 029°19'0 0.0
2017-Dec-10 22:00N 60°01' E 029°19'0 0.0
2017-Dec-10 21:27N 60°01' E 029°19'0 0.0
2017-Dec-10 21:00N 60°01' E 029°19'0 0.0
2017-Dec-10 20:27N 60°01' E 029°19'0 0.0
2017-Dec-10 19:58N 60°01' E 029°19'1 2.0
2017-Dec-10 19:30N 60°01' E 029°18'510.4
2017-Dec-10 19:00N 60°02' E 029°08'612.3
2017-Dec-10 18:30N 60°02' E 028°55'612.7
2017-Dec-10 18:00N 60°02' E 028°43'612.4
2017-Dec-10 17:30N 59°57' E 028°35'612.5
2017-Dec-10 17:00N 59°52' E 028°28'5 9.4
2017-Dec-10 16:30N 59°47' E 028°25'0 0.5
2017-Dec-10 16:00N 59°47' E 028°25'0 0.0
2017-Dec-10 15:30N 59°47' E 028°25'0 0.0
2017-Dec-10 15:00N 59°47' E 028°25'0 0.0
2017-Dec-10 14:30N 59°47' E 028°25'0 0.1
2017-Dec-10 14:00N 59°47' E 028°25'0 0.0
2017-Dec-10 13:30N 59°47' E 028°25'0 0.0
2017-Dec-10 12:45N 59°47' E 028°25'0 0.0
2017-Dec-10 12:30N 59°47' E 028°25'0 0.0
2017-Dec-10 12:00N 59°47' E 028°25'0 0.0
2017-Dec-10 11:30N 59°47' E 028°25'0 0.0
2017-Dec-10 11:00N 59°47' E 028°25'0 0.0
2017-Dec-10 10:30N 59°47' E 028°25'0 0.1
2017-Dec-10 10:00N 59°47' E 028°25'0 0.0
2017-Dec-10 09:21N 59°47' E 028°25'0 0.0
2017-Dec-10 08:51N 59°47' E 028°25'0 0.0
2017-Dec-10 08:21N 59°47' E 028°25'0 0.0
2017-Dec-10 07:55N 59°47' E 028°25'0 0.0
2017-Dec-10 07:24N 59°47' E 028°25'0 0.0
2017-Dec-10 06:54N 59°47' E 028°25'0 0.0
2017-Dec-10 06:24N 59°47' E 028°25'0 0.0
2017-Dec-10 05:54N 59°47' E 028°25'0 0.1
2017-Dec-10 05:26N 59°47' E 028°25'0 0.0
2017-Dec-10 04:57N 59°47' E 028°25'0 0.1
2017-Dec-10 04:27N 59°47' E 028°25'0 0.0
2017-Dec-10 03:57N 59°47' E 028°25'0 0.0
2017-Dec-10 03:27N 59°47' E 028°25'0 0.1
2017-Dec-10 02:57N 59°47' E 028°25'0 0.0
2017-Dec-10 02:30N 59°47' E 028°25'0 0.1
2017-Dec-10 02:00N 59°47' E 028°25'0 0.0
2017-Dec-10 01:30N 59°47' E 028°25'0 0.0
2017-Dec-10 01:00N 59°47' E 028°25'0 0.0
2017-Dec-10 00:30N 59°47' E 028°25'0 0.0
2017-Dec-10 00:00N 59°47' E 028°25'0 0.1
2017-Dec-09 23:30N 59°47' E 028°25'1 1.0
2017-Dec-09 23:00N 59°46' E 028°25'3 5.6
2017-Dec-09 22:30N 59°44' E 028°23'2 3.4
2017-Dec-09 21:56N 59°42' E 028°22'0 0.0
2017-Dec-09 21:30N 59°42' E 028°22'0 0.0
2017-Dec-09 21:00N 59°42' E 028°22'0 0.0
2017-Dec-09 20:30N 59°42' E 028°22'0 0.0
2017-Dec-09 20:00N 59°42' E 028°22'0 0.0
2017-Dec-09 19:26N 59°42' E 028°22'0 0.0
2017-Dec-09 18:58N 59°42' E 028°22'0 0.0
2017-Dec-09 18:24N 59°42' E 028°22'0 0.0
2017-Dec-09 17:54N 59°42' E 028°22'0 0.0
2017-Dec-09 17:21N 59°42' E 028°22'0 0.0
2017-Dec-09 16:54N 59°42' E 028°22'0 0.0
2017-Dec-09 16:30N 59°42' E 028°22'0 0.0
2017-Dec-09 15:51N 59°42' E 028°22'0 0.0
2017-Dec-09 15:24N 59°42' E 028°22'0 0.0
2017-Dec-09 14:57N 59°42' E 028°22'0 0.0
2017-Dec-09 14:27N 59°42' E 028°22'0 0.0
2017-Dec-09 13:57N 59°42' E 028°22'0 0.0
2017-Dec-09 13:27N 59°42' E 028°22'0 0.0
2017-Dec-09 12:57N 59°42' E 028°22'0 0.0
2017-Dec-09 12:30N 59°42' E 028°22'0 0.0
2017-Dec-09 12:00N 59°42' E 028°22'0 0.0
2017-Dec-09 11:30N 59°42' E 028°22'0 0.0
2017-Dec-09 11:00N 59°42' E 028°22'0 0.0
2017-Dec-09 10:30N 59°42' E 028°22'0 0.0
2017-Dec-09 10:00N 59°42' E 028°22'0 0.0
2017-Dec-09 09:30N 59°42' E 028°22'0 0.0
2017-Dec-09 09:00N 59°42' E 028°22'0 0.0
2017-Dec-09 08:30N 59°42' E 028°22'0 0.0
2017-Dec-09 08:00N 59°42' E 028°22'0 0.0
2017-Dec-09 07:30N 59°42' E 028°22'0 0.0
2017-Dec-09 07:00N 59°42' E 028°22'0 0.0
2017-Dec-09 06:30N 59°42' E 028°22'0 0.0
2017-Dec-09 06:00N 59°42' E 028°22'0 0.0
2017-Dec-09 05:21N 59°42' E 028°22'0 0.0
2017-Dec-09 04:48N 59°42' E 028°22'0 0.0
2017-Dec-09 04:24N 59°42' E 028°22'0 0.0
2017-Dec-09 03:54N 59°42' E 028°22'0 0.0
2017-Dec-09 03:24N 59°42' E 028°22'0 0.0
2017-Dec-09 02:54N 59°42' E 028°22'0 0.0
2017-Dec-09 02:24N 59°42' E 028°22'0 0.0
2017-Dec-09 01:54N 59°42' E 028°22'0 0.0
2017-Dec-09 01:24N 59°42' E 028°22'0 0.0
2017-Dec-09 01:00N 59°42' E 028°22'0 0.0
2017-Dec-09 00:27N 59°42' E 028°22'0 0.0
2017-Dec-08 23:57N 59°42' E 028°22'0 0.0
2017-Dec-08 23:27N 59°42' E 028°22'0 0.0
2017-Dec-08 23:00N 59°42' E 028°22'0 0.0
2017-Dec-08 22:30N 59°42' E 028°22'0 0.0
2017-Dec-08 22:00N 59°42' E 028°22'0 0.0
2017-Dec-08 21:30N 59°42' E 028°22'0 0.0
2017-Dec-08 21:00N 59°42' E 028°22'0 0.0
2017-Dec-08 20:30N 59°42' E 028°22'0 0.0
2017-Dec-08 20:00N 59°42' E 028°22'0 0.0
2017-Dec-08 19:30N 59°42' E 028°22'0 0.1
2017-Dec-08 19:00N 59°42' E 028°22'0 0.0
2017-Dec-08 18:30N 59°42' E 028°22'0 0.0
2017-Dec-08 18:00N 59°42' E 028°22'0 0.0
2017-Dec-08 17:30N 59°42' E 028°22'0 0.0
2017-Dec-08 16:48N 59°42' E 028°22'0 0.0
2017-Dec-08 16:27N 59°42' E 028°22'0 0.0
2017-Dec-08 16:00N 59°42' E 028°22'0 0.0
2017-Dec-08 15:21N 59°42' E 028°22'0 0.0
2017-Dec-08 14:51N 59°42' E 028°22'0 0.0
2017-Dec-08 14:30N 59°42' E 028°22'0 0.0
2017-Dec-08 13:54N 59°42' E 028°22'0 0.0
2017-Dec-08 13:24N 59°42' E 028°22'0 0.0
2017-Dec-08 12:54N 59°42' E 028°22'0 0.0
2017-Dec-08 12:24N 59°42' E 028°22'0 0.0
2017-Dec-08 11:57N 59°42' E 028°22'0 0.0
2017-Dec-08 11:27N 59°42' E 028°22'0 0.0
2017-Dec-08 10:57N 59°42' E 028°22'0 0.0
2017-Dec-08 10:27N 59°42' E 028°22'0 0.0
2017-Dec-08 09:57N 59°42' E 028°22'0 0.0
2017-Dec-08 09:27N 59°42' E 028°22'0 0.0
2017-Dec-08 09:00N 59°42' E 028°22'0 0.0
2017-Dec-08 08:30N 59°42' E 028°22'0 0.0
2017-Dec-08 08:00N 59°42' E 028°22'0 0.0
2017-Dec-08 07:30N 59°42' E 028°22'0 0.0
2017-Dec-08 07:00N 59°42' E 028°21'0 0.0
2017-Dec-08 06:30N 59°42' E 028°21'0 0.0
2017-Dec-08 06:00N 59°42' E 028°21'0 0.0
2017-Dec-08 05:30N 59°42' E 028°21'1 2.6
2017-Dec-08 05:00N 59°42' E 028°24'1 2.2
2017-Dec-08 04:30N 59°42' E 028°26'0 0.0
2017-Dec-08 03:57N 59°42' E 028°26'0 0.0
2017-Dec-08 03:27N 59°42' E 028°26'0 0.0
2017-Dec-08 02:57N 59°42' E 028°26'0 0.0
2017-Dec-08 02:27N 59°42' E 028°26'0 0.0
2017-Dec-08 02:00N 59°42' E 028°26'0 0.0
2017-Dec-08 01:30N 59°42' E 028°26'0 0.0
2017-Dec-08 01:00N 59°42' E 028°26'0 0.0
2017-Dec-08 00:30N 59°42' E 028°26'0 0.0
2017-Dec-07 23:57N 59°42' E 028°26'0 0.0
2017-Dec-07 23:30N 59°42' E 028°26'0 0.0
2017-Dec-07 23:00N 59°42' E 028°26'0 0.0
2017-Dec-07 22:30N 59°42' E 028°26'0 0.0
2017-Dec-07 22:00N 59°42' E 028°26'0 0.0
2017-Dec-07 21:30N 59°42' E 028°26'0 0.0
2017-Dec-07 21:00N 59°42' E 028°26'0 0.0
2017-Dec-07 20:30N 59°42' E 028°26'0 0.0
2017-Dec-07 20:00N 59°42' E 028°26'0 0.0
2017-Dec-07 19:30N 59°42' E 028°26'0 0.0
2017-Dec-07 19:00N 59°42' E 028°26'0 0.0
2017-Dec-07 18:30N 59°42' E 028°26'0 0.1
2017-Dec-07 18:00N 59°42' E 028°26'0 0.1
2017-Dec-07 17:30N 59°42' E 028°26'0 0.1
2017-Dec-07 17:00N 59°42' E 028°25'1 1.3
2017-Dec-07 16:31N 59°42' E 028°24'3 6.7
2017-Dec-07 16:00N 59°45' E 028°24'2 3.8
2017-Dec-07 15:31N 59°47' E 028°24'4 7.6
2017-Dec-07 15:00N 59°51' E 028°26'510.7
2017-Dec-07 14:30N 59°55' E 028°32'5 9.9
2017-Dec-07 14:00N 59°60' E 028°35'4 8.0
2017-Dec-07 13:31N 60°03' E 028°40'611.0
2017-Dec-07 13:00N 60°03' E 028°51'1911.0
2017-Dec-07 11:15N 60°02' E 029°30'311.2
2017-Dec-07 11:00N 60°01' E 029°35'510.4
2017-Dec-07 10:30N 59°59' E 029°45'510.8
2017-Dec-07 10:00N 59°56' E 029°54'510.8
2017-Dec-07 09:30N 59°54' E 030°04'4 7.1
2017-Dec-07 08:57N 59°53' E 030°12'1 2.1
2017-Dec-07 08:30N 59°53' E 030°13'0 0.0
2017-Dec-07 08:00N 59°53' E 030°13'0 0.0
2017-Dec-07 07:30N 59°53' E 030°13'0 0.0
2017-Dec-07 07:00N 59°53' E 030°13'0 0.0
2017-Dec-07 06:30N 59°53' E 030°13'0 0.0
2017-Dec-07 06:00N 59°53' E 030°13'0 0.0
2017-Dec-07 05:30N 59°53' E 030°13'0 0.0
2017-Dec-07 05:00N 59°53' E 030°13'0 0.0
2017-Dec-07 04:30N 59°53' E 030°13'0 0.0
2017-Dec-07 04:00N 59°53' E 030°13'0 0.0
2017-Dec-07 03:30N 59°53' E 030°13'0 0.0
2017-Dec-07 03:00N 59°53' E 030°13'0 0.0
2017-Dec-07 02:30N 59°53' E 030°13'0 0.0
2017-Dec-07 02:00N 59°53' E 030°13'0 0.0
2017-Dec-07 01:30N 59°53' E 030°13'0 0.0
2017-Dec-07 01:00N 59°53' E 030°13'0 0.0
2017-Dec-07 00:30N 59°53' E 030°13'0 0.0
2017-Dec-07 00:00N 59°53' E 030°13'0 0.0
2017-Dec-06 23:30N 59°53' E 030°13'0 0.0
2017-Dec-06 23:00N 59°53' E 030°13'0 0.0
2017-Dec-06 22:30N 59°53' E 030°13'0 0.0
2017-Dec-06 22:00N 59°53' E 030°13'0 0.0
2017-Dec-06 21:30N 59°53' E 030°13'0 0.0
2017-Dec-06 21:00N 59°53' E 030°13'  
2017-Dec-04 10:24N 59°42' E 028°20'0 0.0
2017-Dec-04 09:54N 59°42' E 028°20'0 0.0
2017-Dec-04 09:27N 59°42' E 028°20'0 0.0
2017-Dec-04 08:57N 59°42' E 028°20'0 0.0
2017-Dec-04 08:27N 59°42' E 028°20'0 0.0
2017-Dec-04 07:57N 59°42' E 028°20'0 0.0
2017-Dec-04 07:27N 59°42' E 028°20'0 0.0
2017-Dec-04 06:57N 59°42' E 028°20'0 0.0
2017-Dec-04 06:30N 59°42' E 028°20'0 0.0
2017-Dec-04 06:00N 59°42' E 028°20'0 0.0
2017-Dec-04 05:30N 59°42' E 028°20'0 0.0
2017-Dec-04 05:00N 59°42' E 028°20'0 0.0
2017-Dec-04 04:30N 59°42' E 028°20'0 0.0
2017-Dec-04 04:00N 59°42' E 028°20'0 0.0
2017-Dec-04 03:30N 59°42' E 028°20'0 0.0
2017-Dec-04 03:00N 59°42' E 028°20'0 0.0
2017-Dec-04 02:30N 59°42' E 028°20'0 0.0
2017-Dec-04 02:00N 59°42' E 028°20'0 0.0
2017-Dec-04 01:30N 59°42' E 028°20'0 0.3
2017-Dec-04 01:00N 59°42' E 028°20'3 6.7
2017-Dec-04 00:30N 59°44' E 028°24'2 4.5
2017-Dec-04 00:01N 59°47' E 028°24'0 0.0
2017-Dec-03 23:27N 59°47' E 028°24'0 0.0
2017-Dec-03 22:51N 59°47' E 028°24'0 0.0
2017-Dec-03 22:30N 59°47' E 028°24'0 0.0
2017-Dec-03 21:54N 59°47' E 028°24'0 0.0
2017-Dec-03 21:24N 59°47' E 028°24'0 0.0
2017-Dec-03 21:00N 59°47' E 028°24'0 0.0
2017-Dec-03 20:24N 59°47' E 028°24'0 0.0
2017-Dec-03 19:57N 59°47' E 028°24'0 0.0
2017-Dec-03 19:24N 59°47' E 028°24'0 0.0
2017-Dec-03 18:57N 59°47' E 028°24'0 0.0
2017-Dec-03 18:27N 59°47' E 028°24'0 0.0
2017-Dec-03 17:57N 59°47' E 028°24'0 0.0
2017-Dec-03 17:27N 59°47' E 028°24'0 0.0
2017-Dec-03 17:00N 59°47' E 028°24'0 0.3
2017-Dec-03 16:30N 59°47' E 028°24'3 5.1
2017-Dec-03 16:00N 59°44' E 028°24'3 6.8
2017-Dec-03 15:30N 59°42' E 028°19'0 0.1
2017-Dec-03 15:00N 59°42' E 028°19'0 0.0
2017-Dec-03 14:26N 59°42' E 028°19'0 0.0
2017-Dec-03 13:56N 59°42' E 028°19'0 0.0
2017-Dec-03 13:26N 59°42' E 028°19'0 0.0
2017-Dec-03 12:56N 59°42' E 028°19'0 0.0
2017-Dec-03 12:26N 59°42' E 028°19'0 0.0
2017-Dec-03 11:59N 59°42' E 028°19'0 0.0
2017-Dec-03 11:29N 59°42' E 028°19'0 0.0
2017-Dec-03 10:59N 59°42' E 028°19'0 0.0
2017-Dec-03 10:29N 59°42' E 028°19'0 0.0
2017-Dec-03 09:59N 59°42' E 028°19'0 0.0
2017-Dec-03 09:29N 59°42' E 028°19'0 0.0
2017-Dec-03 08:53N 59°42' E 028°19'0 0.0
2017-Dec-03 08:26N 59°42' E 028°19'0 0.0
2017-Dec-03 07:56N 59°42' E 028°19'0 0.0
2017-Dec-03 07:26N 59°42' E 028°19'0 0.0
2017-Dec-03 06:56N 59°42' E 028°19'0 0.0
2017-Dec-03 06:29N 59°42' E 028°19'0 0.0
2017-Dec-03 05:56N 59°42' E 028°19'0 0.0
2017-Dec-03 05:29N 59°42' E 028°19'0 0.0
2017-Dec-03 04:59N 59°42' E 028°19'0 0.0
2017-Dec-03 04:29N 59°42' E 028°19'0 0.0
2017-Dec-03 03:59N 59°42' E 028°19'0 0.0
2017-Dec-03 03:29N 59°42' E 028°19'0 0.0
2017-Dec-03 02:59N 59°42' E 028°19'0 0.0
2017-Dec-03 02:29N 59°42' E 028°19'0 0.0
2017-Dec-03 01:59N 59°42' E 028°19'0 0.0
2017-Dec-03 01:29N 59°42' E 028°19'0 0.0
2017-Dec-03 00:59N 59°42' E 028°19'0 0.0
2017-Dec-03 00:29N 59°42' E 028°19'0 0.0
2017-Dec-02 23:59N 59°42' E 028°19'0 0.0
2017-Dec-02 23:29N 59°42' E 028°19'0 0.0
2017-Dec-02 22:59N 59°42' E 028°19'0 0.0
2017-Dec-02 22:20N 59°42' E 028°19'0 0.0
2017-Dec-02 21:50N 59°42' E 028°19'0 0.0
2017-Dec-02 21:23N 59°42' E 028°19'0 0.0
2017-Dec-02 20:50N 59°42' E 028°19'0 0.0
2017-Dec-02 20:23N 59°42' E 028°19'0 0.0
2017-Dec-02 19:53N 59°42' E 028°19'0 0.0
2017-Dec-02 19:23N 59°42' E 028°19'0 0.0
2017-Dec-02 18:53N 59°42' E 028°19'0 0.0
2017-Dec-02 18:23N 59°42' E 028°19'0 0.0
2017-Dec-02 17:56N 59°42' E 028°19'0 0.0
2017-Dec-02 17:26N 59°42' E 028°19'0 0.0
2017-Dec-02 16:56N 59°42' E 028°19'0 0.0
2017-Dec-02 16:26N 59°42' E 028°19'0 0.0
2017-Dec-02 15:56N 59°42' E 028°19'0 0.0
2017-Dec-02 15:26N 59°42' E 028°19'0 0.0
2017-Dec-02 14:59N 59°42' E 028°19'0 0.0
2017-Dec-02 14:29N 59°42' E 028°19'0 0.1
2017-Dec-02 13:59N 59°42' E 028°19'0 0.1
2017-Dec-02 13:29N 59°42' E 028°19'0 0.0
2017-Dec-02 12:59N 59°42' E 028°19'0 0.0
2017-Dec-02 12:26N 59°42' E 028°19'0 0.0
2017-Dec-02 11:59N 59°42' E 028°19'0 0.0
2017-Dec-02 11:29N 59°42' E 028°19'0 0.0
2017-Dec-02 10:59N 59°42' E 028°19'0 0.0
2017-Dec-02 10:29N 59°42' E 028°19'0 0.0
2017-Dec-02 09:59N 59°42' E 028°19'1 1.2
2017-Dec-02 09:30N 59°42' E 028°20'3 6.8
2017-Dec-02 09:00N 59°45' E 028°24'2 4.1
2017-Dec-02 08:29N 59°47' E 028°25'0 0.0
2017-Dec-02 07:59N 59°47' E 028°25'0 0.0
2017-Dec-02 07:29N 59°47' E 028°25'0 0.1
2017-Dec-02 06:59N 59°47' E 028°25'0 0.1
2017-Dec-02 06:29N 59°47' E 028°25'0 0.1
2017-Dec-02 05:59N 59°47' E 028°25'0 0.0
2017-Dec-02 05:29N 59°47' E 028°25'0 0.0
2017-Dec-02 04:59N 59°47' E 028°25'0 0.0
2017-Dec-02 04:29N 59°47' E 028°25'0 0.0
2017-Dec-02 04:00N 59°47' E 028°25'1 2.6
2017-Dec-02 03:30N 59°46' E 028°24'4 8.0
2017-Dec-02 03:00N 59°42' E 028°22'0 0.1
2017-Dec-02 02:30N 59°42' E 028°22'0 0.0
2017-Dec-02 02:00N 59°42' E 028°22'0 0.0
2017-Dec-02 01:30N 59°42' E 028°22'0 0.0
2017-Dec-02 00:50N 59°42' E 028°22'0 0.0
2017-Dec-02 00:29N 59°42' E 028°22'0 0.0
2017-Dec-01 23:56N 59°42' E 028°22'0 0.0
2017-Dec-01 23:23N 59°42' E 028°22'0 0.0
2017-Dec-01 22:53N 59°42' E 028°22'0 0.0
2017-Dec-01 22:23N 59°42' E 028°22'0 0.0
2017-Dec-01 21:50N 59°42' E 028°22'0 0.0
2017-Dec-01 21:26N 59°42' E 028°22'0 0.0
2017-Dec-01 20:56N 59°42' E 028°22'0 0.0
2017-Dec-01 20:26N 59°42' E 028°22'0 0.0
2017-Dec-01 19:41N 59°42' E 028°22'0 0.0
2017-Dec-01 19:11N 59°42' E 028°22'0 0.0
2017-Dec-01 18:56N 59°42' E 028°22'0 0.0
2017-Dec-01 18:26N 59°42' E 028°22'0 0.0
2017-Dec-01 17:44N 59°42' E 028°22'0 0.0
2017-Dec-01 17:29N 59°42' E 028°22'  
Track history (hours):
 
Tides and Currents Weather Stations Pressure Air Temp Water Temp Dewpoint Dewpoint Depression Visibility Wind Speed Wind Dir Waves Ship Positions

Vidnoe

Last reported at 2017-Dec-11 17:00 UTC. Time now 2017-Dec-14 04:27 UTC.
Position N 59°53' E 030°13'.

Length 115 m; beam 17 m.

Type: Tanker. MMSI: 273516400.

Date/timePositionNaut miles runAvg speedWind from/ knotsBaromVisibWave heightAir tempDewpointWater temp
2017-Dec-11 17:00N 59°53' E 030°13'0 0.0
2017-Dec-11 16:30N 59°53' E 030°13'0 0.0
2017-Dec-11 16:00N 59°53' E 030°13'0 0.0
2017-Dec-11 15:30N 59°53' E 030°13'0 0.0
2017-Dec-11 15:00N 59°53' E 030°13'0 0.0
2017-Dec-11 14:30N 59°53' E 030°13'0 0.0
2017-Dec-11 14:00N 59°53' E 030°13'0 0.0
2017-Dec-11 13:30N 59°53' E 030°13'0 0.0
2017-Dec-11 13:00N 59°53' E 030°13'0 0.0
2017-Dec-11 12:30N 59°53' E 030°13'0 0.1
2017-Dec-11 12:00N 59°53' E 030°13'0 0.1
2017-Dec-11 11:30N 59°53' E 030°13'0 0.0
2017-Dec-11 11:00N 59°53' E 030°13'0 0.0
2017-Dec-11 10:30N 59°53' E 030°13'0 0.0
2017-Dec-11 10:00N 59°53' E 030°13'0 0.0
2017-Dec-11 09:30N 59°53' E 030°13'0 0.0
2017-Dec-11 09:00N 59°53' E 030°13'0 0.0
2017-Dec-11 08:30N 59°53' E 030°13'0 0.0
2017-Dec-11 08:00N 59°53' E 030°13'0 0.0
2017-Dec-11 07:30N 59°53' E 030°13'0 0.0
2017-Dec-11 07:00N 59°53' E 030°13'0 0.0
2017-Dec-11 06:30N 59°53' E 030°13'0 0.0
2017-Dec-11 06:00N 59°53' E 030°13'0 0.0
2017-Dec-11 05:30N 59°53' E 030°13'0 0.0
2017-Dec-11 05:00N 59°53' E 030°13'0 0.0
2017-Dec-11 04:30N 59°53' E 030°13'0 0.8
2017-Dec-11 04:00N 59°53' E 030°13'3 5.4
2017-Dec-11 03:30N 59°54' E 030°08'4 8.3
2017-Dec-11 03:00N 59°55' E 029°60'611.1
2017-Dec-11 02:30N 59°57' E 029°50'611.0
2017-Dec-11 02:00N 59°60' E 029°40'712.0
2017-Dec-11 01:25N 60°01' E 029°26'3 7.9
2017-Dec-11 01:00N 60°01' E 029°20'0 0.5
2017-Dec-11 00:30N 60°01' E 029°19'0 0.0
2017-Dec-11 00:00N 60°01' E 029°19'0 0.0
2017-Dec-10 23:30N 60°01' E 029°19'0 0.0
2017-Dec-10 23:00N 60°01' E 029°19'0 0.0
2017-Dec-10 22:27N 60°01' E 029°19'0 0.0
2017-Dec-10 22:00N 60°01' E 029°19'0 0.0
2017-Dec-10 21:27N 60°01' E 029°19'0 0.0
2017-Dec-10 21:00N 60°01' E 029°19'0 0.0
2017-Dec-10 20:27N 60°01' E 029°19'0 0.0
2017-Dec-10 19:58N 60°01' E 029°19'1 2.0
2017-Dec-10 19:30N 60°01' E 029°18'510.4
2017-Dec-10 19:00N 60°02' E 029°08'612.3
2017-Dec-10 18:30N 60°02' E 028°55'612.7
2017-Dec-10 18:00N 60°02' E 028°43'612.4
2017-Dec-10 17:30N 59°57' E 028°35'612.5
2017-Dec-10 17:00N 59°52' E 028°28'5 9.4
2017-Dec-10 16:30N 59°47' E 028°25'0 0.5
2017-Dec-10 16:00N 59°47' E 028°25'0 0.0
2017-Dec-10 15:30N 59°47' E 028°25'0 0.0
2017-Dec-10 15:00N 59°47' E 028°25'0 0.0
2017-Dec-10 14:30N 59°47' E 028°25'0 0.1
2017-Dec-10 14:00N 59°47' E 028°25'0 0.0
2017-Dec-10 13:30N 59°47' E 028°25'0 0.0
2017-Dec-10 12:45N 59°47' E 028°25'0 0.0
2017-Dec-10 12:30N 59°47' E 028°25'0 0.0
2017-Dec-10 12:00N 59°47' E 028°25'0 0.0
2017-Dec-10 11:30N 59°47' E 028°25'0 0.0
2017-Dec-10 11:00N 59°47' E 028°25'0 0.0
2017-Dec-10 10:30N 59°47' E 028°25'0 0.1
2017-Dec-10 10:00N 59°47' E 028°25'0 0.0
2017-Dec-10 09:21N 59°47' E 028°25'0 0.0
2017-Dec-10 08:51N 59°47' E 028°25'0 0.0
2017-Dec-10 08:21N 59°47' E 028°25'0 0.0
2017-Dec-10 07:55N 59°47' E 028°25'0 0.0
2017-Dec-10 07:24N 59°47' E 028°25'0 0.0
2017-Dec-10 06:54N 59°47' E 028°25'0 0.0
2017-Dec-10 06:24N 59°47' E 028°25'0 0.0
2017-Dec-10 05:54N 59°47' E 028°25'0 0.1
2017-Dec-10 05:26N 59°47' E 028°25'0 0.0
2017-Dec-10 04:57N 59°47' E 028°25'0 0.1
2017-Dec-10 04:27N 59°47' E 028°25'0 0.0
2017-Dec-10 03:57N 59°47' E 028°25'0 0.0
2017-Dec-10 03:27N 59°47' E 028°25'0 0.1
2017-Dec-10 02:57N 59°47' E 028°25'0 0.0
2017-Dec-10 02:30N 59°47' E 028°25'0 0.1
2017-Dec-10 02:00N 59°47' E 028°25'0 0.0
2017-Dec-10 01:30N 59°47' E 028°25'0 0.0
2017-Dec-10 01:00N 59°47' E 028°25'0 0.0
2017-Dec-10 00:30N 59°47' E 028°25'0 0.0
2017-Dec-10 00:00N 59°47' E 028°25'0 0.1
2017-Dec-09 23:30N 59°47' E 028°25'1 1.0
2017-Dec-09 23:00N 59°46' E 028°25'3 5.6
2017-Dec-09 22:30N 59°44' E 028°23'2 3.4
2017-Dec-09 21:56N 59°42' E 028°22'0 0.0
2017-Dec-09 21:30N 59°42' E 028°22'0 0.0
2017-Dec-09 21:00N 59°42' E 028°22'0 0.0
2017-Dec-09 20:30N 59°42' E 028°22'0 0.0
2017-Dec-09 20:00N 59°42' E 028°22'0 0.0
2017-Dec-09 19:26N 59°42' E 028°22'0 0.0
2017-Dec-09 18:58N 59°42' E 028°22'0 0.0
2017-Dec-09 18:24N 59°42' E 028°22'0 0.0
2017-Dec-09 17:54N 59°42' E 028°22'0 0.0
2017-Dec-09 17:21N 59°42' E 028°22'0 0.0
2017-Dec-09 16:54N 59°42' E 028°22'0 0.0
2017-Dec-09 16:30N 59°42' E 028°22'0 0.0
2017-Dec-09 15:51N 59°42' E 028°22'0 0.0
2017-Dec-09 15:24N 59°42' E 028°22'0 0.0
2017-Dec-09 14:57N 59°42' E 028°22'0 0.0
2017-Dec-09 14:27N 59°42' E 028°22'0 0.0
2017-Dec-09 13:57N 59°42' E 028°22'0 0.0
2017-Dec-09 13:27N 59°42' E 028°22'0 0.0
2017-Dec-09 12:57N 59°42' E 028°22'0 0.0
2017-Dec-09 12:30N 59°42' E 028°22'0 0.0
2017-Dec-09 12:00N 59°42' E 028°22'0 0.0
2017-Dec-09 11:30N 59°42' E 028°22'0 0.0
2017-Dec-09 11:00N 59°42' E 028°22'0 0.0
2017-Dec-09 10:30N 59°42' E 028°22'0 0.0
2017-Dec-09 10:00N 59°42' E 028°22'0 0.0
2017-Dec-09 09:30N 59°42' E 028°22'0 0.0
2017-Dec-09 09:00N 59°42' E 028°22'0 0.0
2017-Dec-09 08:30N 59°42' E 028°22'0 0.0
2017-Dec-09 08:00N 59°42' E 028°22'0 0.0
2017-Dec-09 07:30N 59°42' E 028°22'0 0.0
2017-Dec-09 07:00N 59°42' E 028°22'0 0.0
2017-Dec-09 06:30N 59°42' E 028°22'0 0.0
2017-Dec-09 06:00N 59°42' E 028°22'0 0.0
2017-Dec-09 05:21N 59°42' E 028°22'0 0.0
2017-Dec-09 04:48N 59°42' E 028°22'0 0.0
2017-Dec-09 04:24N 59°42' E 028°22'0 0.0
2017-Dec-09 03:54N 59°42' E 028°22'0 0.0
2017-Dec-09 03:24N 59°42' E 028°22'0 0.0
2017-Dec-09 02:54N 59°42' E 028°22'0 0.0
2017-Dec-09 02:24N 59°42' E 028°22'0 0.0
2017-Dec-09 01:54N 59°42' E 028°22'0 0.0
2017-Dec-09 01:24N 59°42' E 028°22'0 0.0
2017-Dec-09 01:00N 59°42' E 028°22'0 0.0
2017-Dec-09 00:27N 59°42' E 028°22'0 0.0
2017-Dec-08 23:57N 59°42' E 028°22'0 0.0
2017-Dec-08 23:27N 59°42' E 028°22'0 0.0
2017-Dec-08 23:00N 59°42' E 028°22'0 0.0
2017-Dec-08 22:30N 59°42' E 028°22'0 0.0
2017-Dec-08 22:00N 59°42' E 028°22'0 0.0
2017-Dec-08 21:30N 59°42' E 028°22'0 0.0
2017-Dec-08 21:00N 59°42' E 028°22'0 0.0
2017-Dec-08 20:30N 59°42' E 028°22'0 0.0
2017-Dec-08 20:00N 59°42' E 028°22'0 0.0
2017-Dec-08 19:30N 59°42' E 028°22'0 0.1
2017-Dec-08 19:00N 59°42' E 028°22'0 0.0
2017-Dec-08 18:30N 59°42' E 028°22'0 0.0
2017-Dec-08 18:00N 59°42' E 028°22'0 0.0
2017-Dec-08 17:30N 59°42' E 028°22'0 0.0
2017-Dec-08 16:48N 59°42' E 028°22'0 0.0
2017-Dec-08 16:27N 59°42' E 028°22'0 0.0
2017-Dec-08 16:00N 59°42' E 028°22'0 0.0
2017-Dec-08 15:21N 59°42' E 028°22'0 0.0
2017-Dec-08 14:51N 59°42' E 028°22'0 0.0
2017-Dec-08 14:30N 59°42' E 028°22'0 0.0
2017-Dec-08 13:54N 59°42' E 028°22'0 0.0
2017-Dec-08 13:24N 59°42' E 028°22'0 0.0
2017-Dec-08 12:54N 59°42' E 028°22'0 0.0
2017-Dec-08 12:24N 59°42' E 028°22'0 0.0
2017-Dec-08 11:57N 59°42' E 028°22'0 0.0
2017-Dec-08 11:27N 59°42' E 028°22'0 0.0
2017-Dec-08 10:57N 59°42' E 028°22'0 0.0
2017-Dec-08 10:27N 59°42' E 028°22'0 0.0
2017-Dec-08 09:57N 59°42' E 028°22'0 0.0
2017-Dec-08 09:27N 59°42' E 028°22'0 0.0
2017-Dec-08 09:00N 59°42' E 028°22'0 0.0
2017-Dec-08 08:30N 59°42' E 028°22'0 0.0
2017-Dec-08 08:00N 59°42' E 028°22'0 0.0
2017-Dec-08 07:30N 59°42' E 028°22'0 0.0
2017-Dec-08 07:00N 59°42' E 028°21'0 0.0
2017-Dec-08 06:30N 59°42' E 028°21'0 0.0
2017-Dec-08 06:00N 59°42' E 028°21'0 0.0
2017-Dec-08 05:30N 59°42' E 028°21'1 2.6
2017-Dec-08 05:00N 59°42' E 028°24'1 2.2
2017-Dec-08 04:30N 59°42' E 028°26'0 0.0
2017-Dec-08 03:57N 59°42' E 028°26'0 0.0
2017-Dec-08 03:27N 59°42' E 028°26'0 0.0
2017-Dec-08 02:57N 59°42' E 028°26'0 0.0
2017-Dec-08 02:27N 59°42' E 028°26'0 0.0
2017-Dec-08 02:00N 59°42' E 028°26'0 0.0
2017-Dec-08 01:30N 59°42' E 028°26'0 0.0
2017-Dec-08 01:00N 59°42' E 028°26'0 0.0
2017-Dec-08 00:30N 59°42' E 028°26'0 0.0
2017-Dec-07 23:57N 59°42' E 028°26'0 0.0
2017-Dec-07 23:30N 59°42' E 028°26'0 0.0
2017-Dec-07 23:00N 59°42' E 028°26'0 0.0
2017-Dec-07 22:30N 59°42' E 028°26'0 0.0
2017-Dec-07 22:00N 59°42' E 028°26'0 0.0
2017-Dec-07 21:30N 59°42' E 028°26'0 0.0
2017-Dec-07 21:00N 59°42' E 028°26'0 0.0
2017-Dec-07 20:30N 59°42' E 028°26'0 0.0
2017-Dec-07 20:00N 59°42' E 028°26'0 0.0
2017-Dec-07 19:30N 59°42' E 028°26'0 0.0
2017-Dec-07 19:00N 59°42' E 028°26'0 0.0
2017-Dec-07 18:30N 59°42' E 028°26'0 0.1
2017-Dec-07 18:00N 59°42' E 028°26'0 0.1
2017-Dec-07 17:30N 59°42' E 028°26'0 0.1
2017-Dec-07 17:00N 59°42' E 028°25'1 1.3
2017-Dec-07 16:31N 59°42' E 028°24'3 6.7
2017-Dec-07 16:00N 59°45' E 028°24'2 3.8
2017-Dec-07 15:31N 59°47' E 028°24'4 7.6
2017-Dec-07 15:00N 59°51' E 028°26'510.7
2017-Dec-07 14:30N 59°55' E 028°32'5 9.9
2017-Dec-07 14:00N 59°60' E 028°35'4 8.0
2017-Dec-07 13:31N 60°03' E 028°40'611.0
2017-Dec-07 13:00N 60°03' E 028°51'1911.0
2017-Dec-07 11:15N 60°02' E 029°30'311.2
2017-Dec-07 11:00N 60°01' E 029°35'510.4
2017-Dec-07 10:30N 59°59' E 029°45'510.8
2017-Dec-07 10:00N 59°56' E 029°54'510.8
2017-Dec-07 09:30N 59°54' E 030°04'4 7.1
2017-Dec-07 08:57N 59°53' E 030°12'1 2.1
2017-Dec-07 08:30N 59°53' E 030°13'0 0.0
2017-Dec-07 08:00N 59°53' E 030°13'0 0.0
2017-Dec-07 07:30N 59°53' E 030°13'0 0.0
2017-Dec-07 07:00N 59°53' E 030°13'0 0.0
2017-Dec-07 06:30N 59°53' E 030°13'0 0.0
2017-Dec-07 06:00N 59°53' E 030°13'0 0.0
2017-Dec-07 05:30N 59°53' E 030°13'0 0.0
2017-Dec-07 05:00N 59°53' E 030°13'0 0.0
2017-Dec-07 04:30N 59°53' E 030°13'0 0.0
2017-Dec-07 04:00N 59°53' E 030°13'0 0.0
2017-Dec-07 03:30N 59°53' E 030°13'0 0.0
2017-Dec-07 03:00N 59°53' E 030°13'0 0.0
2017-Dec-07 02:30N 59°53' E 030°13'0 0.0
2017-Dec-07 02:00N 59°53' E 030°13'0 0.0
2017-Dec-07 01:30N 59°53' E 030°13'0 0.0
2017-Dec-07 01:00N 59°53' E 030°13'0 0.0
2017-Dec-07 00:30N 59°53' E 030°13'0 0.0
2017-Dec-07 00:00N 59°53' E 030°13'0 0.0
2017-Dec-06 23:30N 59°53' E 030°13'0 0.0
2017-Dec-06 23:00N 59°53' E 030°13'0 0.0
2017-Dec-06 22:30N 59°53' E 030°13'0 0.0
2017-Dec-06 22:00N 59°53' E 030°13'0 0.0
2017-Dec-06 21:30N 59°53' E 030°13'0 0.0
2017-Dec-06 21:00N 59°53' E 030°13'  
2017-Dec-04 10:24N 59°42' E 028°20'0 0.0
2017-Dec-04 09:54N 59°42' E 028°20'0 0.0
2017-Dec-04 09:27N 59°42' E 028°20'0 0.0
2017-Dec-04 08:57N 59°42' E 028°20'0 0.0
2017-Dec-04 08:27N 59°42' E 028°20'0 0.0
2017-Dec-04 07:57N 59°42' E 028°20'0 0.0
2017-Dec-04 07:27N 59°42' E 028°20'0 0.0
2017-Dec-04 06:57N 59°42' E 028°20'0 0.0
2017-Dec-04 06:30N 59°42' E 028°20'0 0.0
2017-Dec-04 06:00N 59°42' E 028°20'0 0.0
2017-Dec-04 05:30N 59°42' E 028°20'0 0.0
2017-Dec-04 05:00N 59°42' E 028°20'0 0.0
2017-Dec-04 04:30N 59°42' E 028°20'0 0.0
2017-Dec-04 04:00N 59°42' E 028°20'0 0.0
2017-Dec-04 03:30N 59°42' E 028°20'0 0.0
2017-Dec-04 03:00N 59°42' E 028°20'0 0.0
2017-Dec-04 02:30N 59°42' E 028°20'0 0.0
2017-Dec-04 02:00N 59°42' E 028°20'0 0.0
2017-Dec-04 01:30N 59°42' E 028°20'0 0.3
2017-Dec-04 01:00N 59°42' E 028°20'3 6.7
2017-Dec-04 00:30N 59°44' E 028°24'2 4.5
2017-Dec-04 00:01N 59°47' E 028°24'0 0.0
2017-Dec-03 23:27N 59°47' E 028°24'0 0.0
2017-Dec-03 22:51N 59°47' E 028°24'0 0.0
2017-Dec-03 22:30N 59°47' E 028°24'0 0.0
2017-Dec-03 21:54N 59°47' E 028°24'0 0.0
2017-Dec-03 21:24N 59°47' E 028°24'0 0.0
2017-Dec-03 21:00N 59°47' E 028°24'0 0.0
2017-Dec-03 20:24N 59°47' E 028°24'0 0.0
2017-Dec-03 19:57N 59°47' E 028°24'0 0.0
2017-Dec-03 19:24N 59°47' E 028°24'0 0.0
2017-Dec-03 18:57N 59°47' E 028°24'0 0.0
2017-Dec-03 18:27N 59°47' E 028°24'0 0.0
2017-Dec-03 17:57N 59°47' E 028°24'0 0.0
2017-Dec-03 17:27N 59°47' E 028°24'0 0.0
2017-Dec-03 17:00N 59°47' E 028°24'0 0.3
2017-Dec-03 16:30N 59°47' E 028°24'3 5.1
2017-Dec-03 16:00N 59°44' E 028°24'3 6.8
2017-Dec-03 15:30N 59°42' E 028°19'0 0.1
2017-Dec-03 15:00N 59°42' E 028°19'0 0.0
2017-Dec-03 14:26N 59°42' E 028°19'0 0.0
2017-Dec-03 13:56N 59°42' E 028°19'0 0.0
2017-Dec-03 13:26N 59°42' E 028°19'0 0.0
2017-Dec-03 12:56N 59°42' E 028°19'0 0.0
2017-Dec-03 12:26N 59°42' E 028°19'0 0.0
2017-Dec-03 11:59N 59°42' E 028°19'0 0.0
2017-Dec-03 11:29N 59°42' E 028°19'0 0.0
2017-Dec-03 10:59N 59°42' E 028°19'0 0.0
2017-Dec-03 10:29N 59°42' E 028°19'0 0.0
2017-Dec-03 09:59N 59°42' E 028°19'0 0.0
2017-Dec-03 09:29N 59°42' E 028°19'0 0.0
2017-Dec-03 08:53N 59°42' E 028°19'0 0.0
2017-Dec-03 08:26N 59°42' E 028°19'0 0.0
2017-Dec-03 07:56N 59°42' E 028°19'0 0.0
2017-Dec-03 07:26N 59°42' E 028°19'0 0.0
2017-Dec-03 06:56N 59°42' E 028°19'0 0.0
2017-Dec-03 06:29N 59°42' E 028°19'0 0.0
2017-Dec-03 05:56N 59°42' E 028°19'0 0.0
2017-Dec-03 05:29N 59°42' E 028°19'0 0.0
2017-Dec-03 04:59N 59°42' E 028°19'0 0.0
2017-Dec-03 04:29N 59°42' E 028°19'0 0.0
2017-Dec-03 03:59N 59°42' E 028°19'0 0.0
2017-Dec-03 03:29N 59°42' E 028°19'0 0.0
2017-Dec-03 02:59N 59°42' E 028°19'0 0.0
2017-Dec-03 02:29N 59°42' E 028°19'0 0.0
2017-Dec-03 01:59N 59°42' E 028°19'0 0.0
2017-Dec-03 01:29N 59°42' E 028°19'0 0.0
2017-Dec-03 00:59N 59°42' E 028°19'0 0.0
2017-Dec-03 00:29N 59°42' E 028°19'0 0.0
2017-Dec-02 23:59N 59°42' E 028°19'0 0.0
2017-Dec-02 23:29N 59°42' E 028°19'0 0.0
2017-Dec-02 22:59N 59°42' E 028°19'0 0.0
2017-Dec-02 22:20N 59°42' E 028°19'0 0.0
2017-Dec-02 21:50N 59°42' E 028°19'0 0.0
2017-Dec-02 21:23N 59°42' E 028°19'0 0.0
2017-Dec-02 20:50N 59°42' E 028°19'0 0.0
2017-Dec-02 20:23N 59°42' E 028°19'0 0.0
2017-Dec-02 19:53N 59°42' E 028°19'0 0.0
2017-Dec-02 19:23N 59°42' E 028°19'0 0.0
2017-Dec-02 18:53N 59°42' E 028°19'0 0.0
2017-Dec-02 18:23N 59°42' E 028°19'0 0.0
2017-Dec-02 17:56N 59°42' E 028°19'0 0.0
2017-Dec-02 17:26N 59°42' E 028°19'0 0.0
2017-Dec-02 16:56N 59°42' E 028°19'0 0.0
2017-Dec-02 16:26N 59°42' E 028°19'0 0.0
2017-Dec-02 15:56N 59°42' E 028°19'0 0.0
2017-Dec-02 15:26N 59°42' E 028°19'0 0.0
2017-Dec-02 14:59N 59°42' E 028°19'0 0.0
2017-Dec-02 14:29N 59°42' E 028°19'0 0.1
2017-Dec-02 13:59N 59°42' E 028°19'0 0.1
2017-Dec-02 13:29N 59°42' E 028°19'0 0.0
2017-Dec-02 12:59N 59°42' E 028°19'0 0.0
2017-Dec-02 12:26N 59°42' E 028°19'0 0.0
2017-Dec-02 11:59N 59°42' E 028°19'0 0.0
2017-Dec-02 11:29N 59°42' E 028°19'0 0.0
2017-Dec-02 10:59N 59°42' E 028°19'0 0.0
2017-Dec-02 10:29N 59°42' E 028°19'0 0.0
2017-Dec-02 09:59N 59°42' E 028°19'1 1.2
2017-Dec-02 09:30N 59°42' E 028°20'3 6.8
2017-Dec-02 09:00N 59°45' E 028°24'2 4.1
2017-Dec-02 08:29N 59°47' E 028°25'0 0.0
2017-Dec-02 07:59N 59°47' E 028°25'0 0.0
2017-Dec-02 07:29N 59°47' E 028°25'0 0.1
2017-Dec-02 06:59N 59°47' E 028°25'0 0.1
2017-Dec-02 06:29N 59°47' E 028°25'0 0.1
2017-Dec-02 05:59N 59°47' E 028°25'0 0.0
2017-Dec-02 05:29N 59°47' E 028°25'0 0.0
2017-Dec-02 04:59N 59°47' E 028°25'0 0.0
2017-Dec-02 04:29N 59°47' E 028°25'0 0.0
2017-Dec-02 04:00N 59°47' E 028°25'1 2.6
2017-Dec-02 03:30N 59°46' E 028°24'4 8.0
2017-Dec-02 03:00N 59°42' E 028°22'0 0.1
2017-Dec-02 02:30N 59°42' E 028°22'0 0.0
2017-Dec-02 02:00N 59°42' E 028°22'0 0.0
2017-Dec-02 01:30N 59°42' E 028°22'0 0.0
2017-Dec-02 00:50N 59°42' E 028°22'0 0.0
2017-Dec-02 00:29N 59°42' E 028°22'0 0.0
2017-Dec-01 23:56N 59°42' E 028°22'0 0.0
2017-Dec-01 23:23N 59°42' E 028°22'0 0.0
2017-Dec-01 22:53N 59°42' E 028°22'0 0.0
2017-Dec-01 22:23N 59°42' E 028°22'0 0.0
2017-Dec-01 21:50N 59°42' E 028°22'0 0.0
2017-Dec-01 21:26N 59°42' E 028°22'0 0.0
2017-Dec-01 20:56N 59°42' E 028°22'0 0.0
2017-Dec-01 20:26N 59°42' E 028°22'0 0.0
2017-Dec-01 19:41N 59°42' E 028°22'0 0.0
2017-Dec-01 19:11N 59°42' E 028°22'0 0.0
2017-Dec-01 18:56N 59°42' E 028°22'0 0.0
2017-Dec-01 18:26N 59°42' E 028°22'0 0.0
2017-Dec-01 17:44N 59°42' E 028°22'0 0.0
2017-Dec-01 17:29N 59°42' E 028°22'  

Dump ship's entire track history